createdAt,value
2023-04-17T00:00:18.690Z,1.20
2023-04-17T00:02:50.854Z,1.00
2023-04-17T00:05:23.538Z,1.00
2023-04-17T00:07:55.617Z,0.90
2023-04-17T00:10:26.989Z,1.10
2023-04-17T00:12:58.881Z,1.00
2023-04-17T00:15:30.802Z,1.10
2023-04-17T00:18:02.796Z,1.00
2023-04-17T00:20:34.385Z,1.10
2023-04-17T00:23:05.851Z,1.00
2023-04-17T00:25:37.132Z,1.00
2023-04-17T00:28:09.526Z,1.00
2023-04-17T00:30:40.924Z,1.10
2023-04-17T00:33:12.637Z,1.10
2023-04-17T00:35:44.780Z,1.00
2023-04-17T00:38:16.740Z,0.90
2023-04-17T00:40:49.241Z,1.10
2023-04-17T00:43:22.244Z,0.90
2023-04-17T00:45:54.422Z,1.00
2023-04-17T00:48:26.731Z,1.10
2023-04-17T00:51:02.408Z,1.00
2023-04-17T00:53:34.843Z,1.00
2023-04-17T00:56:07.659Z,0.90
2023-04-17T00:58:41.541Z,1.00
2023-04-17T01:01:13.456Z,1.20
2023-04-17T01:03:45.426Z,1.00
2023-04-17T01:06:18.415Z,1.10
2023-04-17T01:08:50.944Z,0.80
2023-04-17T01:11:22.573Z,0.80
2023-04-17T01:13:54.419Z,0.80
2023-04-17T01:16:26.041Z,0.90
2023-04-17T01:18:57.925Z,0.80
2023-04-17T01:21:31.195Z,0.90
2023-04-17T01:24:05.548Z,0.80
2023-04-17T01:26:37.474Z,0.80
2023-04-17T01:29:09.925Z,0.80
2023-04-17T01:31:42.806Z,0.90
2023-04-17T01:34:14.614Z,0.80
2023-04-17T01:36:46.649Z,0.90
2023-04-17T01:39:18.805Z,0.90
2023-04-17T01:41:51.666Z,0.80
2023-04-17T01:44:23.971Z,0.80
2023-04-17T01:46:56.773Z,1.00
2023-04-17T01:49:28.842Z,0.80
2023-04-17T01:52:00.431Z,0.80
2023-04-17T01:54:31.898Z,0.90
2023-04-17T01:57:03.351Z,0.80
2023-04-17T01:59:35.109Z,0.90
2023-04-17T02:02:07.327Z,0.80
2023-04-17T02:04:39.360Z,0.90
2023-04-17T02:07:12.401Z,0.80
2023-04-17T02:09:44.349Z,0.80
2023-04-17T02:12:16.779Z,0.80
2023-04-17T02:14:48.954Z,0.90
2023-04-17T02:17:22.219Z,0.90
2023-04-17T02:19:53.373Z,1.20
2023-04-17T02:22:24.619Z,0.90
2023-04-17T02:24:56.391Z,0.70
2023-04-17T02:27:27.969Z,1.00
2023-04-17T02:29:59.710Z,0.80
2023-04-17T02:32:31.884Z,1.10
2023-04-17T02:35:03.840Z,0.90
2023-04-17T02:37:36.670Z,0.90
2023-04-17T02:40:11.709Z,0.90
2023-04-17T02:42:43.214Z,0.90
2023-04-17T02:45:15.113Z,0.90
2023-04-17T02:47:47.430Z,0.90
2023-04-17T02:50:19.526Z,1.00
2023-04-17T02:53:11.051Z,1.10
2023-04-17T02:55:42.885Z,0.90
2023-04-17T02:58:14.722Z,1.00
2023-04-17T03:00:46.306Z,0.80
2023-04-17T03:03:22.455Z,0.90
2023-04-17T03:05:54.059Z,0.80
2023-04-17T03:08:25.663Z,0.90
2023-04-17T03:10:58.481Z,1.00
2023-04-17T03:13:30.861Z,0.90
2023-04-17T03:16:04.832Z,1.00
2023-04-17T03:18:40.612Z,0.90
2023-04-17T03:21:13.699Z,0.80
2023-04-17T03:23:45.497Z,0.80
2023-04-17T03:26:17.480Z,1.00
2023-04-17T03:28:48.790Z,0.80
2023-04-17T03:31:24.434Z,0.70
2023-04-17T03:33:56.268Z,0.90
2023-04-17T03:36:28.881Z,0.90
2023-04-17T03:39:01.520Z,0.70
2023-04-17T03:41:32.776Z,0.80
2023-04-17T03:44:05.426Z,0.80
2023-04-17T03:46:37.409Z,0.70
2023-04-17T03:49:08.768Z,0.90
2023-04-17T03:51:42.867Z,0.80
2023-04-17T03:54:18.594Z,0.80
2023-04-17T03:56:51.212Z,0.70
2023-04-17T03:59:23.778Z,0.90
2023-04-17T04:01:56.858Z,0.80
2023-04-17T04:04:29.177Z,0.80
2023-04-17T04:07:08.991Z,0.80
2023-04-17T04:09:40.435Z,0.80
2023-04-17T04:12:13.262Z,0.80
2023-04-17T04:14:46.262Z,0.80
2023-04-17T04:17:18.742Z,0.80
2023-04-17T04:19:51.353Z,0.80
2023-04-17T04:22:24.032Z,0.90
2023-04-17T04:24:57.788Z,0.80
2023-04-17T04:27:37.930Z,0.90
2023-04-17T04:30:13.189Z,0.80
2023-04-17T04:32:46.865Z,0.90
2023-04-17T04:35:19.176Z,0.90
2023-04-17T04:37:51.368Z,0.80
2023-04-17T04:40:22.948Z,1.00
2023-04-17T04:42:56.043Z,1.00
2023-04-17T04:45:33.772Z,1.10
2023-04-17T04:48:06.083Z,1.10
2023-04-17T04:50:37.950Z,0.90
2023-04-17T04:53:09.783Z,1.10
2023-04-17T04:55:47.027Z,1.20
2023-04-17T04:58:18.817Z,1.20
2023-04-17T05:00:50.836Z,1.10
2023-04-17T05:03:28.109Z,1.10
2023-04-17T05:06:00.493Z,1.20
2023-04-17T05:08:36.750Z,1.00
2023-04-17T05:11:13.741Z,1.30
2023-04-17T05:13:45.308Z,1.30
2023-04-17T05:16:21.862Z,1.10
2023-04-17T05:18:53.741Z,1.40
2023-04-17T05:21:31.658Z,1.10
2023-04-17T05:24:06.162Z,1.20
2023-04-17T05:26:38.251Z,1.50
2023-04-17T05:29:10.823Z,1.10
2023-04-17T05:31:43.055Z,1.20
2023-04-17T05:34:25.030Z,1.20
2023-04-17T05:36:56.926Z,1.40
2023-04-17T05:39:29.650Z,1.40
2023-04-17T05:42:01.588Z,1.20
2023-04-17T05:44:34.395Z,1.20
2023-04-17T05:47:06.684Z,1.00
2023-04-17T05:49:38.286Z,1.00
2023-04-17T05:52:10.738Z,1.00
2023-04-17T05:54:45.281Z,1.10
2023-04-17T05:57:17.048Z,0.80
2023-04-17T05:59:49.606Z,1.10
2023-04-17T06:02:20.831Z,0.90
2023-04-17T06:04:53.177Z,1.00
2023-04-17T06:07:25.034Z,0.70
2023-04-17T06:09:58.322Z,0.90
2023-04-17T06:12:30.068Z,0.80
2023-04-17T06:15:05.653Z,0.80
2023-04-17T06:17:38.679Z,0.70
2023-04-17T06:20:12.771Z,0.90
2023-04-17T06:22:47.155Z,0.80
2023-04-17T06:25:19.282Z,0.80
2023-04-17T06:27:51.130Z,0.90
2023-04-17T06:30:23.291Z,0.80
2023-04-17T06:32:57.610Z,0.80
2023-04-17T06:35:29.882Z,0.90
2023-04-17T06:38:16.705Z,1.10
2023-04-17T06:40:49.470Z,0.70
2023-04-17T06:43:22.296Z,1.00
2023-04-17T06:45:54.415Z,0.80
2023-04-17T06:48:26.158Z,0.90
2023-04-17T06:50:58.520Z,0.70
2023-04-17T06:53:29.819Z,0.90
2023-04-17T06:56:01.410Z,0.70
2023-04-17T06:58:33.356Z,0.70
2023-04-17T07:01:05.189Z,1.00
2023-04-17T07:03:39.350Z,0.90
2023-04-17T07:06:12.268Z,1.00
2023-04-17T07:08:43.872Z,0.80
2023-04-17T07:11:15.215Z,0.80
2023-04-17T07:13:46.533Z,0.80
2023-04-17T07:16:18.244Z,0.80
2023-04-17T07:18:49.818Z,1.20
2023-04-17T07:21:21.582Z,1.00
2023-04-17T07:23:53.200Z,0.90
2023-04-17T07:26:24.583Z,0.70
2023-04-17T07:28:56.149Z,1.00
2023-04-17T07:31:28.735Z,0.90
2023-04-17T07:34:00.785Z,0.80
2023-04-17T07:36:32.409Z,0.80
2023-04-17T07:39:03.918Z,0.90
2023-04-17T07:41:35.891Z,0.70
2023-04-17T07:44:08.463Z,0.90
2023-04-17T07:46:40.274Z,0.90
2023-04-17T07:49:12.761Z,0.80
2023-04-17T07:51:44.686Z,0.70
2023-04-17T07:54:16.625Z,0.80
2023-04-17T07:56:49.533Z,0.70
2023-04-17T07:59:21.436Z,0.90
2023-04-17T08:01:54.060Z,1.00
2023-04-17T08:04:26.153Z,0.80
2023-04-17T08:06:57.915Z,0.80
2023-04-17T08:09:30.309Z,0.80
2023-04-17T08:12:02.218Z,0.80
2023-04-17T08:14:33.956Z,0.70
2023-04-17T08:17:07.850Z,0.90
2023-04-17T08:19:40.051Z,0.60
2023-04-17T08:22:11.509Z,0.70
2023-04-17T08:24:43.719Z,0.80
2023-04-17T08:27:16.068Z,0.80
2023-04-17T08:29:47.765Z,0.80
2023-04-17T08:32:19.322Z,1.10
2023-04-17T08:34:51.176Z,0.80
2023-04-17T08:37:22.677Z,0.70
2023-04-17T08:39:55.049Z,0.60
2023-04-17T08:42:27.204Z,0.80
2023-04-17T08:45:05.622Z,0.50
2023-04-17T08:47:37.606Z,0.80
2023-04-17T08:50:14.204Z,0.80
2023-04-17T08:52:47.397Z,0.80
2023-04-17T08:55:20.981Z,0.90
2023-04-17T08:58:04.310Z,0.60
2023-04-17T09:00:38.077Z,0.70
2023-04-17T09:03:13.763Z,0.70
2023-04-17T09:05:46.569Z,0.80
2023-04-17T09:08:20.846Z,0.60
2023-04-17T09:10:54.590Z,0.70
2023-04-17T09:13:29.242Z,1.00
2023-04-17T09:16:13.495Z,0.70
2023-04-17T09:18:46.199Z,1.00
2023-04-17T09:21:19.964Z,0.80
2023-04-17T09:23:53.295Z,0.70
2023-04-17T09:26:26.409Z,0.70
2023-04-17T09:29:09.356Z,0.70
2023-04-17T09:31:42.553Z,0.80
2023-04-17T09:34:16.752Z,0.80
2023-04-17T09:36:47.950Z,0.80
2023-04-17T09:39:24.628Z,0.90
2023-04-17T09:42:04.321Z,0.80
2023-04-17T09:44:37.158Z,0.90
2023-04-17T09:47:11.399Z,0.90
2023-04-17T09:49:49.780Z,1.00
2023-04-17T09:52:23.850Z,1.00
2023-04-17T09:54:56.368Z,1.00
2023-04-17T09:57:28.002Z,0.80
2023-04-17T10:00:04.318Z,0.80
2023-04-17T10:02:36.805Z,1.10
2023-04-17T10:05:11.944Z,1.00
2023-04-17T10:07:44.008Z,0.80
2023-04-17T10:10:22.810Z,1.10
2023-04-17T10:12:56.760Z,1.50
2023-04-17T10:15:29.905Z,1.10
2023-04-17T10:18:23.443Z,0.90
2023-04-17T10:20:56.053Z,0.90
2023-04-17T10:23:32.564Z,0.70
2023-04-17T10:26:42.504Z,0.80
2023-04-17T10:29:14.122Z,0.80
2023-04-17T10:32:28.960Z,0.80
2023-04-17T10:35:02.278Z,0.80
2023-04-17T10:38:00.273Z,0.80
2023-04-17T10:40:34.083Z,1.20
2023-04-17T10:43:13.255Z,1.20
2023-04-17T10:46:03.653Z,1.40
2023-04-17T10:48:38.908Z,1.40
2023-04-17T10:51:37.528Z,1.20
2023-04-17T10:54:10.691Z,1.20
2023-04-17T10:56:43.752Z,1.20
2023-04-17T10:59:17.021Z,1.40
2023-04-17T11:02:05.081Z,1.40
2023-04-17T11:04:36.759Z,1.40
2023-04-17T11:07:08.154Z,1.70
2023-04-17T11:09:41.395Z,1.30
2023-04-17T11:12:15.923Z,1.20
2023-04-17T11:14:47.329Z,1.30
2023-04-17T11:17:22.246Z,1.30
2023-04-17T11:19:54.020Z,1.20
2023-04-17T11:22:25.802Z,1.10
2023-04-17T11:24:56.967Z,1.20
2023-04-17T11:27:28.733Z,1.40
2023-04-17T11:30:00.037Z,1.20
2023-04-17T11:32:38.402Z,1.20
2023-04-17T11:35:11.203Z,1.30
2023-04-17T11:38:17.762Z,1.20
2023-04-17T11:40:51.504Z,1.20
2023-04-17T11:43:24.201Z,1.00
2023-04-17T11:45:57.566Z,1.30
2023-04-17T11:48:32.358Z,1.20
2023-04-17T11:51:06.049Z,1.10
2023-04-17T11:53:47.397Z,1.20
2023-04-17T11:56:20.292Z,1.10
2023-04-17T11:58:53.469Z,1.10
2023-04-17T12:01:25.757Z,1.10
2023-04-17T12:03:58.285Z,0.90
2023-04-17T12:06:38.702Z,1.10
2023-04-17T12:09:20.592Z,1.30
2023-04-17T12:11:53.683Z,1.40
2023-04-17T12:14:26.451Z,1.00
2023-04-17T12:16:57.912Z,0.80
2023-04-17T12:19:29.915Z,1.10
2023-04-17T12:22:02.142Z,1.20
2023-04-17T12:24:36.222Z,1.00
2023-04-17T12:27:07.754Z,1.10
2023-04-17T12:29:44.360Z,1.10
2023-04-17T12:32:16.779Z,1.10
2023-04-17T12:34:48.719Z,1.00
2023-04-17T12:37:21.668Z,1.00
2023-04-17T12:39:53.156Z,0.90
2023-04-17T12:42:24.813Z,0.90
2023-04-17T12:44:56.358Z,1.10
2023-04-17T12:47:28.044Z,1.20
2023-04-17T12:49:59.476Z,1.60
2023-04-17T12:52:31.116Z,1.60
2023-04-17T12:55:02.797Z,1.50
2023-04-17T12:57:34.582Z,1.50
2023-04-17T13:00:09.539Z,1.50
2023-04-17T13:02:41.347Z,1.60
2023-04-17T13:05:12.992Z,2.10
2023-04-17T13:07:44.546Z,1.90
2023-04-17T13:10:16.180Z,1.50
2023-04-17T13:12:47.892Z,1.70
2023-04-17T13:15:19.859Z,1.80
2023-04-17T13:17:51.273Z,1.70
2023-04-17T13:20:22.873Z,1.60
2023-04-17T13:22:54.043Z,1.90
2023-04-17T13:25:26.060Z,1.60
2023-04-17T13:27:57.381Z,1.70
2023-04-17T13:30:29.338Z,1.80
2023-04-17T13:33:00.565Z,1.70
2023-04-17T13:35:32.493Z,1.60
2023-04-17T13:38:04.485Z,1.70
2023-04-17T13:40:36.400Z,2.10
2023-04-17T13:43:07.647Z,1.80
2023-04-17T13:45:39.105Z,1.80
2023-04-17T13:48:11.750Z,1.70
2023-04-17T13:50:43.600Z,1.70
2023-04-17T13:53:15.093Z,1.80
2023-04-17T13:55:46.549Z,2.10
2023-04-17T13:58:17.772Z,1.70
2023-04-17T14:00:49.132Z,1.70
2023-04-17T14:03:20.732Z,1.60
2023-04-17T14:05:51.930Z,1.50
2023-04-17T14:08:23.881Z,1.60
2023-04-17T14:10:56.220Z,1.60
2023-04-17T14:13:27.497Z,1.50
2023-04-17T14:15:59.596Z,1.60
2023-04-17T14:18:31.041Z,1.90
2023-04-17T14:21:02.163Z,1.30
2023-04-17T14:23:37.278Z,1.60
2023-04-17T14:26:09.005Z,1.50
2023-04-17T14:28:41.245Z,1.50
2023-04-17T14:31:12.848Z,1.60
2023-04-17T14:33:44.458Z,1.40
2023-04-17T14:36:16.211Z,1.40
2023-04-17T14:38:51.336Z,1.40
2023-04-17T14:41:22.868Z,1.30
2023-04-17T14:43:54.350Z,1.50
2023-04-17T14:46:26.326Z,1.50
2023-04-17T14:48:58.977Z,1.50
2023-04-17T14:51:30.564Z,1.60
2023-04-17T14:54:02.327Z,1.40
2023-04-17T14:56:35.778Z,1.60
2023-04-17T14:59:07.530Z,1.50
2023-04-17T15:01:39.725Z,1.80
2023-04-17T15:04:10.972Z,1.50
2023-04-17T15:06:43.435Z,1.70
2023-04-17T15:09:15.883Z,1.50
2023-04-17T15:11:47.785Z,1.60
2023-04-17T15:14:19.267Z,1.80
2023-04-17T15:16:51.037Z,1.40
2023-04-17T15:19:22.817Z,2.40
2023-04-17T15:21:54.612Z,1.50
2023-04-17T15:24:26.158Z,1.60
2023-04-17T15:26:57.477Z,1.50
2023-04-17T15:29:28.805Z,1.30
2023-04-17T15:32:00.795Z,1.70
2023-04-17T15:34:32.322Z,1.90
2023-04-17T15:37:03.848Z,1.70
2023-04-17T15:39:39.729Z,1.70
2023-04-17T15:42:12.097Z,1.90
2023-04-17T15:44:43.496Z,1.60
2023-04-17T15:47:15.092Z,1.60
2023-04-17T15:49:48.230Z,1.80
2023-04-17T15:52:19.806Z,1.70
2023-04-17T15:54:51.210Z,1.90
2023-04-17T15:57:22.768Z,1.60
2023-04-17T15:59:54.377Z,1.60
2023-04-17T16:02:26.100Z,1.60
2023-04-17T16:04:57.829Z,1.50
2023-04-17T16:07:29.116Z,1.70
2023-04-17T16:10:01.213Z,1.60
2023-04-17T16:12:32.553Z,1.80
2023-04-17T16:15:06.079Z,2.00
2023-04-17T16:17:37.606Z,1.90
2023-04-17T16:20:12.113Z,1.80
2023-04-17T16:22:44.090Z,1.70
2023-04-17T16:25:15.750Z,2.10
2023-04-17T16:27:47.246Z,1.80
2023-04-17T16:30:19.076Z,1.80
2023-04-17T16:32:50.575Z,1.80
2023-04-17T16:35:22.350Z,1.70
2023-04-17T16:37:54.029Z,1.90
2023-04-17T16:40:26.735Z,1.80
2023-04-17T16:42:58.050Z,1.80
2023-04-17T16:45:29.579Z,1.70
2023-04-17T16:48:01.165Z,1.70
2023-04-17T16:50:32.905Z,1.70
2023-04-17T16:53:04.582Z,1.70
2023-04-17T16:55:37.466Z,2.10
2023-04-17T16:58:08.913Z,2.10
2023-04-17T17:00:40.573Z,2.10
2023-04-17T17:03:12.569Z,1.90
2023-04-17T17:05:44.563Z,1.80
2023-04-17T17:08:17.010Z,2.10
2023-04-17T17:10:50.486Z,2.20
2023-04-17T17:13:23.164Z,1.90
2023-04-17T17:15:54.583Z,1.90
2023-04-17T17:18:26.291Z,1.90
2023-04-17T17:21:00.256Z,1.80
2023-04-17T17:23:32.365Z,1.90
2023-04-17T17:26:03.988Z,1.90
2023-04-17T17:28:36.542Z,2.00
2023-04-17T17:31:09.366Z,1.90
2023-04-17T17:33:40.944Z,1.80
2023-04-17T17:36:12.953Z,2.00
2023-04-17T17:38:44.731Z,1.70
2023-04-17T17:41:16.401Z,1.90
2023-04-17T17:43:47.996Z,1.90
2023-04-17T17:46:19.569Z,2.00
2023-04-17T17:48:51.354Z,1.90
2023-04-17T17:51:23.760Z,1.70
2023-04-17T17:53:56.025Z,2.10
2023-04-17T17:56:28.410Z,1.80
2023-04-17T17:59:00.135Z,1.90
2023-04-17T18:01:31.273Z,1.70
2023-04-17T18:04:03.035Z,1.60
2023-04-17T18:06:34.759Z,1.90
2023-04-17T18:09:06.738Z,1.70
2023-04-17T18:11:39.598Z,1.60
2023-04-17T18:14:10.992Z,1.80
2023-04-17T18:16:43.062Z,1.70
2023-04-17T18:19:14.091Z,1.90
2023-04-17T18:21:47.306Z,1.80
2023-04-17T18:24:19.241Z,1.80
2023-04-17T18:26:50.310Z,2.10
2023-04-17T18:29:21.733Z,2.30
2023-04-17T18:31:54.775Z,2.10
2023-04-17T18:34:26.192Z,2.40
2023-04-17T18:37:00.134Z,2.60
2023-04-17T18:39:31.348Z,2.80
2023-04-17T18:42:03.017Z,2.70
2023-04-17T18:44:34.413Z,2.50
2023-04-17T18:47:05.928Z,2.40
2023-04-17T18:49:37.567Z,3.00
2023-04-17T18:52:09.015Z,2.90
2023-04-17T18:54:40.507Z,2.80
2023-04-17T18:57:12.116Z,2.70
2023-04-17T18:59:43.555Z,2.60
2023-04-17T19:02:14.981Z,2.80
2023-04-17T19:04:46.491Z,2.70
2023-04-17T19:07:18.122Z,2.40
2023-04-17T19:09:49.993Z,2.50
2023-04-17T19:12:21.457Z,2.30
2023-04-17T19:14:53.487Z,2.70
2023-04-17T19:17:25.563Z,2.30
2023-04-17T19:19:56.913Z,2.60
2023-04-17T19:22:28.559Z,2.60
2023-04-17T19:24:59.911Z,2.60
2023-04-17T19:27:31.668Z,2.70
2023-04-17T19:30:03.072Z,2.50
2023-04-17T19:32:34.453Z,2.40
2023-04-17T19:35:06.315Z,2.20
2023-04-17T19:37:37.702Z,1.90
2023-04-17T19:40:21.390Z,1.80
2023-04-17T19:43:01.261Z,2.00
2023-04-17T19:45:35.289Z,2.30
2023-04-17T19:48:07.927Z,2.10
2023-04-17T19:50:39.225Z,2.20
2023-04-17T19:53:10.622Z,2.00
2023-04-17T19:55:42.528Z,2.00
2023-04-17T19:58:14.404Z,2.60
2023-04-17T20:00:46.142Z,3.40
2023-04-17T20:03:17.646Z,4.20
2023-04-17T20:05:50.099Z,3.80
2023-04-17T20:08:21.533Z,3.00
2023-04-17T20:10:53.165Z,2.60
2023-04-17T20:13:24.570Z,2.60
2023-04-17T20:15:56.456Z,2.50
2023-04-17T20:18:27.828Z,2.20
2023-04-17T20:21:01.281Z,2.30
2023-04-17T20:23:32.646Z,2.20
2023-04-17T20:26:03.968Z,2.40
2023-04-17T20:28:35.205Z,2.10
2023-04-17T20:31:07.041Z,2.10
2023-04-17T20:33:39.253Z,2.00
2023-04-17T20:36:10.938Z,2.30
2023-04-17T20:38:42.318Z,1.90
2023-04-17T20:41:13.530Z,2.20
2023-04-17T20:43:44.776Z,2.00
2023-04-17T20:46:16.474Z,2.10
2023-04-17T20:48:49.197Z,2.00
2023-04-17T20:51:21.148Z,2.20
2023-04-17T20:53:52.760Z,2.20
2023-04-17T20:56:24.573Z,2.20
2023-04-17T20:58:55.985Z,2.10
2023-04-17T21:01:27.339Z,2.20
2023-04-17T21:03:58.537Z,2.10
2023-04-17T21:06:30.887Z,2.20
2023-04-17T21:09:02.125Z,2.10
2023-04-17T21:11:33.703Z,2.20
2023-04-17T21:14:04.766Z,2.10
2023-04-17T21:16:37.831Z,2.60
2023-04-17T21:19:09.299Z,2.50
2023-04-17T21:21:40.575Z,2.50
2023-04-17T21:24:12.934Z,2.40
2023-04-17T21:26:45.008Z,2.40
2023-04-17T21:29:16.528Z,2.60
2023-04-17T21:31:48.183Z,2.60
2023-04-17T21:34:19.554Z,2.60
2023-04-17T21:36:51.292Z,2.70
2023-04-17T21:39:22.997Z,2.70
2023-04-17T21:41:54.306Z,2.30
2023-04-17T21:44:25.577Z,2.50
2023-04-17T21:46:56.877Z,2.70
2023-04-17T21:49:28.171Z,2.50
2023-04-17T21:52:00.235Z,2.60
2023-04-17T21:54:31.783Z,2.80
2023-04-17T21:57:04.056Z,2.90
2023-04-17T21:59:35.622Z,2.60
2023-04-17T22:02:07.305Z,2.90
2023-04-17T22:04:38.747Z,2.70
2023-04-17T22:07:10.150Z,2.90
2023-04-17T22:09:41.636Z,2.70
2023-04-17T22:12:17.774Z,3.00
2023-04-17T22:14:49.402Z,3.20
2023-04-17T22:17:21.098Z,3.00
2023-04-17T22:19:52.682Z,2.80
2023-04-17T22:22:24.010Z,2.80
2023-04-17T22:24:55.153Z,2.50
2023-04-17T22:27:26.753Z,2.50
2023-04-17T22:29:58.288Z,2.50
2023-04-17T22:32:29.547Z,2.60
2023-04-17T22:35:01.068Z,2.70
2023-04-17T22:37:34.243Z,2.30
2023-04-17T22:40:06.243Z,2.10
2023-04-17T22:42:37.833Z,2.10
2023-04-17T22:45:10.875Z,2.30
2023-04-17T22:47:42.559Z,2.10
2023-04-17T22:50:14.429Z,2.20
2023-04-17T22:52:46.039Z,2.10
2023-04-17T22:55:16.952Z,2.20
2023-04-17T22:57:48.346Z,2.10
2023-04-17T23:00:21.438Z,2.00
2023-04-17T23:02:52.894Z,2.10
2023-04-17T23:05:24.533Z,1.80
2023-04-17T23:07:56.063Z,1.90
2023-04-17T23:10:27.194Z,2.10
2023-04-17T23:12:58.834Z,1.90
2023-04-17T23:15:30.293Z,1.70
2023-04-17T23:18:01.704Z,1.70
2023-04-17T23:20:33.167Z,1.90
2023-04-17T23:23:04.341Z,1.60
2023-04-17T23:25:36.022Z,1.50
2023-04-17T23:28:07.646Z,1.60
2023-04-17T23:30:39.343Z,1.90
2023-04-17T23:33:11.066Z,1.70
2023-04-17T23:35:42.770Z,1.90
2023-04-17T23:38:13.900Z,2.00
2023-04-17T23:40:45.553Z,2.30
2023-04-17T23:43:16.804Z,1.70
2023-04-17T23:45:48.585Z,1.70
2023-04-17T23:48:20.029Z,1.80
2023-04-17T23:50:51.713Z,1.80
2023-04-17T23:53:23.140Z,1.80
2023-04-17T23:55:54.479Z,1.70
2023-04-17T23:58:25.805Z,1.80
